sensor_id;sensor_type;location;lat;lon;timestamp;temperature;humidity
46159;DHT22;31888;44.512;26.104;2022-09-14T00:01:49;23.70;67.10
46159;DHT22;31888;44.512;26.104;2022-09-14T00:03:55;23.70;67.10
46159;DHT22;31888;44.512;26.104;2022-09-14T00:06:03;23.60;67.40
46159;DHT22;31888;44.512;26.104;2022-09-14T00:08:07;23.50;67.30
46159;DHT22;31888;44.512;26.104;2022-09-14T00:10:13;23.50;67.30
46159;DHT22;31888;44.512;26.104;2022-09-14T00:12:17;23.40;67.50
46159;DHT22;31888;44.512;26.104;2022-09-14T00:14:22;23.40;67.50
46159;DHT22;31888;44.512;26.104;2022-09-14T00:16:31;23.40;67.40
46159;DHT22;31888;44.512;26.104;2022-09-14T00:18:35;23.30;67.90
46159;DHT22;31888;44.512;26.104;2022-09-14T00:20:39;23.10;67.90
46159;DHT22;31888;44.512;26.104;2022-09-14T00:22:44;23.10;68.70
46159;DHT22;31888;44.512;26.104;2022-09-14T00:24:48;22.90;68.60
46159;DHT22;31888;44.512;26.104;2022-09-14T00:26:54;22.80;68.70
46159;DHT22;31888;44.512;26.104;2022-09-14T00:28:59;23.00;68.60
46159;DHT22;31888;44.512;26.104;2022-09-14T00:31:07;22.90;68.70
46159;DHT22;31888;44.512;26.104;2022-09-14T00:33:11;23.00;68.50
46159;DHT22;31888;44.512;26.104;2022-09-14T00:35:17;23.00;68.40
46159;DHT22;31888;44.512;26.104;2022-09-14T00:37:21;23.10;68.40
46159;DHT22;31888;44.512;26.104;2022-09-14T00:39:26;23.10;68.50
46159;DHT22;31888;44.512;26.104;2022-09-14T00:41:32;23.10;68.20
46159;DHT22;31888;44.512;26.104;2022-09-14T00:43:55;23.20;68.00
46159;DHT22;31888;44.512;26.104;2022-09-14T00:46:00;23.00;68.30
46159;DHT22;31888;44.512;26.104;2022-09-14T00:48:05;22.90;68.50
46159;DHT22;31888;44.512;26.104;2022-09-14T00:50:10;22.80;68.90
46159;DHT22;31888;44.512;26.104;2022-09-14T00:52:17;22.80;69.10
46159;DHT22;31888;44.512;26.104;2022-09-14T00:54:23;22.60;69.40
46159;DHT22;31888;44.512;26.104;2022-09-14T00:56:28;22.70;69.30
46159;DHT22;31888;44.512;26.104;2022-09-14T00:58:32;22.80;69.10
46159;DHT22;31888;44.512;26.104;2022-09-14T01:00:38;22.80;68.80
46159;DHT22;31888;44.512;26.104;2022-09-14T01:02:43;22.90;68.70
46159;DHT22;31888;44.512;26.104;2022-09-14T01:04:48;23.00;68.40
46159;DHT22;31888;44.512;26.104;2022-09-14T01:06:59;23.10;68.40
46159;DHT22;31888;44.512;26.104;2022-09-14T01:09:15;23.10;68.20
46159;DHT22;31888;44.512;26.104;2022-09-14T01:11:38;23.20;68.10
46159;DHT22;31888;44.512;26.104;2022-09-14T01:13:56;23.10;68.20
46159;DHT22;31888;44.512;26.104;2022-09-14T01:16:10;23.10;68.30
46159;DHT22;31888;44.512;26.104;2022-09-14T01:18:22;23.10;68.10
46159;DHT22;31888;44.512;26.104;2022-09-14T01:20:29;23.10;67.70
46159;DHT22;31888;44.512;26.104;2022-09-14T01:22:41;23.00;68.40
46159;DHT22;31888;44.512;26.104;2022-09-14T01:24:50;23.10;68.30
46159;DHT22;31888;44.512;26.104;2022-09-14T01:27:23;23.10;68.30
46159;DHT22;31888;44.512;26.104;2022-09-14T01:29:31;23.10;68.30
46159;DHT22;31888;44.512;26.104;2022-09-14T01:31:44;23.10;68.20
46159;DHT22;31888;44.512;26.104;2022-09-14T01:33:54;23.10;68.20
46159;DHT22;31888;44.512;26.104;2022-09-14T01:36:04;23.10;68.80
46159;DHT22;31888;44.512;26.104;2022-09-14T01:38:14;23.10;68.00
46159;DHT22;31888;44.512;26.104;2022-09-14T01:40:26;23.10;68.00
46159;DHT22;31888;44.512;26.104;2022-09-14T01:42:34;23.10;68.00
46159;DHT22;31888;44.512;26.104;2022-09-14T01:44:43;23.10;67.80
46159;DHT22;31888;44.512;26.104;2022-09-14T01:46:53;23.00;68.10
46159;DHT22;31888;44.512;26.104;2022-09-14T01:49:00;23.00;68.00
46159;DHT22;31888;44.512;26.104;2022-09-14T01:51:10;23.00;68.10
46159;DHT22;31888;44.512;26.104;2022-09-14T01:53:21;23.00;68.00
46159;DHT22;31888;44.512;26.104;2022-09-14T01:55:31;22.80;68.30
46159;DHT22;31888;44.512;26.104;2022-09-14T01:57:41;22.70;68.50
46159;DHT22;31888;44.512;26.104;2022-09-14T01:59:50;22.60;68.70
46159;DHT22;31888;44.512;26.104;2022-09-14T02:02:00;22.50;69.00
46159;DHT22;31888;44.512;26.104;2022-09-14T02:04:09;22.60;69.00
46159;DHT22;31888;44.512;26.104;2022-09-14T02:06:20;22.60;68.80
46159;DHT22;31888;44.512;26.104;2022-09-14T02:08:28;22.70;68.60
46159;DHT22;31888;44.512;26.104;2022-09-14T02:10:32;22.80;68.50
46159;DHT22;31888;44.512;26.104;2022-09-14T02:12:39;22.80;68.40
46159;DHT22;31888;44.512;26.104;2022-09-14T02:14:45;22.80;68.50
46159;DHT22;31888;44.512;26.104;2022-09-14T02:16:50;22.80;68.50
46159;DHT22;31888;44.512;26.104;2022-09-14T02:18:55;22.80;68.40
46159;DHT22;31888;44.512;26.104;2022-09-14T02:21:03;22.70;68.70
46159;DHT22;31888;44.512;26.104;2022-09-14T02:23:09;22.70;68.80
46159;DHT22;31888;44.512;26.104;2022-09-14T02:25:14;22.60;68.90
46159;DHT22;31888;44.512;26.104;2022-09-14T02:27:18;22.60;68.90
46159;DHT22;31888;44.512;26.104;2022-09-14T02:29:24;22.50;69.30
46159;DHT22;31888;44.512;26.104;2022-09-14T02:31:36;22.50;69.10
46159;DHT22;31888;44.512;26.104;2022-09-14T02:33:53;22.60;68.90
46159;DHT22;31888;44.512;26.104;2022-09-14T02:36:06;22.50;68.70
46159;DHT22;31888;44.512;26.104;2022-09-14T02:38:17;22.30;69.40
46159;DHT22;31888;44.512;26.104;2022-09-14T02:40:30;22.40;69.20
46159;DHT22;31888;44.512;26.104;2022-09-14T02:42:41;22.30;69.50
46159;DHT22;31888;44.512;26.104;2022-09-14T02:44:55;22.30;69.40
46159;DHT22;31888;44.512;26.104;2022-09-14T02:47:04;22.40;69.20
46159;DHT22;31888;44.512;26.104;2022-09-14T02:49:17;22.50;69.10
46159;DHT22;31888;44.512;26.104;2022-09-14T02:51:27;22.50;69.10
46159;DHT22;31888;44.512;26.104;2022-09-14T02:53:45;22.50;69.10
46159;DHT22;31888;44.512;26.104;2022-09-14T02:55:54;22.40;69.00
46159;DHT22;31888;44.512;26.104;2022-09-14T02:58:01;22.30;69.30
46159;DHT22;31888;44.512;26.104;2022-09-14T03:00:09;22.30;69.00
46159;DHT22;31888;44.512;26.104;2022-09-14T03:02:13;22.30;69.20
46159;DHT22;31888;44.512;26.104;2022-09-14T03:04:21;22.40;69.20
46159;DHT22;31888;44.512;26.104;2022-09-14T03:06:26;22.40;69.10
46159;DHT22;31888;44.512;26.104;2022-09-14T03:08:30;22.50;69.00
46159;DHT22;31888;44.512;26.104;2022-09-14T03:10:35;22.50;68.80
46159;DHT22;31888;44.512;26.104;2022-09-14T03:12:40;22.60;68.80
46159;DHT22;31888;44.512;26.104;2022-09-14T03:14:44;22.50;68.10
46159;DHT22;31888;44.512;26.104;2022-09-14T03:16:50;22.50;68.90
46159;DHT22;31888;44.512;26.104;2022-09-14T03:18:55;22.50;68.70
46159;DHT22;31888;44.512;26.104;2022-09-14T03:21:03;22.40;68.70
46159;DHT22;31888;44.512;26.104;2022-09-14T03:23:08;22.50;68.70
46159;DHT22;31888;44.512;26.104;2022-09-14T03:25:13;22.40;68.60
46159;DHT22;31888;44.512;26.104;2022-09-14T03:27:18;22.40;68.90
46159;DHT22;31888;44.512;26.104;2022-09-14T03:29:22;22.40;68.70
46159;DHT22;31888;44.512;26.104;2022-09-14T03:31:27;22.40;68.70
46159;DHT22;31888;44.512;26.104;2022-09-14T03:33:33;22.40;68.70
46159;DHT22;31888;44.512;26.104;2022-09-14T03:35:38;22.40;68.70
46159;DHT22;31888;44.512;26.104;2022-09-14T03:37:43;22.40;68.50
46159;DHT22;31888;44.512;26.104;2022-09-14T03:39:47;22.40;68.50
46159;DHT22;31888;44.512;26.104;2022-09-14T03:41:51;22.40;68.50
46159;DHT22;31888;44.512;26.104;2022-09-14T03:43:59;22.40;68.50
46159;DHT22;31888;44.512;26.104;2022-09-14T03:46:04;22.40;68.50
46159;DHT22;31888;44.512;26.104;2022-09-14T03:48:09;22.50;68.40
46159;DHT22;31888;44.512;26.104;2022-09-14T03:50:21;22.40;68.50
46159;DHT22;31888;44.512;26.104;2022-09-14T03:52:25;22.40;68.50
46159;DHT22;31888;44.512;26.104;2022-09-14T03:54:31;22.40;68.50
46159;DHT22;31888;44.512;26.104;2022-09-14T03:56:35;22.40;68.50
46159;DHT22;31888;44.512;26.104;2022-09-14T03:58:40;22.40;68.40
46159;DHT22;31888;44.512;26.104;2022-09-14T04:00:48;22.60;68.10
46159;DHT22;31888;44.512;26.104;2022-09-14T04:02:53;22.80;67.70
46159;DHT22;31888;44.512;26.104;2022-09-14T04:04:57;23.20;66.90
46159;DHT22;31888;44.512;26.104;2022-09-14T04:07:03;23.50;66.10
46159;DHT22;31888;44.512;26.104;2022-09-14T04:09:08;23.90;65.50
46159;DHT22;31888;44.512;26.104;2022-09-14T04:11:14;24.20;64.60
46159;DHT22;31888;44.512;26.104;2022-09-14T04:13:18;24.70;63.80
46159;DHT22;31888;44.512;26.104;2022-09-14T04:15:23;25.10;63.10
46159;DHT22;31888;44.512;26.104;2022-09-14T04:17:28;25.40;62.40
46159;DHT22;31888;44.512;26.104;2022-09-14T04:19:32;25.60;62.10
46159;DHT22;31888;44.512;26.104;2022-09-14T04:21:39;25.80;61.80
46159;DHT22;31888;44.512;26.104;2022-09-14T04:23:45;25.90;61.60
46159;DHT22;31888;44.512;26.104;2022-09-14T04:26:10;26.10;61.40
46159;DHT22;31888;44.512;26.104;2022-09-14T04:28:15;26.40;61.00
46159;DHT22;31888;44.512;26.104;2022-09-14T04:30:22;26.40;61.00
46159;DHT22;31888;44.512;26.104;2022-09-14T04:32:26;26.20;61.10
46159;DHT22;31888;44.512;26.104;2022-09-14T04:34:36;26.10;61.30
46159;DHT22;31888;44.512;26.104;2022-09-14T04:36:40;26.20;61.20
46159;DHT22;31888;44.512;26.104;2022-09-14T04:38:47;26.20;61.40
46159;DHT22;31888;44.512;26.104;2022-09-14T04:40:51;26.20;61.20
46159;DHT22;31888;44.512;26.104;2022-09-14T04:42:55;26.30;61.00
46159;DHT22;31888;44.512;26.104;2022-09-14T04:45:00;26.40;61.00
46159;DHT22;31888;44.512;26.104;2022-09-14T04:47:05;26.50;60.80
46159;DHT22;31888;44.512;26.104;2022-09-14T04:49:09;26.30;61.00
46159;DHT22;31888;44.512;26.104;2022-09-14T04:51:16;26.30;61.40
46159;DHT22;31888;44.512;26.104;2022-09-14T04:53:21;26.60;61.00
46159;DHT22;31888;44.512;26.104;2022-09-14T04:55:27;26.80;60.60
46159;DHT22;31888;44.512;26.104;2022-09-14T04:57:31;26.80;60.50
46159;DHT22;31888;44.512;26.104;2022-09-14T04:59:35;26.70;60.70
46159;DHT22;31888;44.512;26.104;2022-09-14T05:01:41;26.60;60.90
46159;DHT22;31888;44.512;26.104;2022-09-14T05:03:46;26.70;60.80
46159;DHT22;31888;44.512;26.104;2022-09-14T05:05:51;26.60;60.80
46159;DHT22;31888;44.512;26.104;2022-09-14T05:07:56;26.60;60.90
46159;DHT22;31888;44.512;26.104;2022-09-14T05:10:00;26.70;61.00
46159;DHT22;31888;44.512;26.104;2022-09-14T05:12:07;26.90;60.80
46159;DHT22;31888;44.512;26.104;2022-09-14T05:14:12;27.00;61.10
46159;DHT22;31888;44.512;26.104;2022-09-14T05:16:18;27.00;60.50
46159;DHT22;31888;44.512;26.104;2022-09-14T05:18:23;27.00;60.70
46159;DHT22;31888;44.512;26.104;2022-09-14T05:20:27;27.00;60.80
46159;DHT22;31888;44.512;26.104;2022-09-14T05:22:32;27.00;60.90
46159;DHT22;31888;44.512;26.104;2022-09-14T05:24:36;27.10;60.70
46159;DHT22;31888;44.512;26.104;2022-09-14T05:26:42;27.30;60.50
46159;DHT22;31888;44.512;26.104;2022-09-14T05:28:50;27.30;60.60
46159;DHT22;31888;44.512;26.104;2022-09-14T05:30:55;27.40;60.50
46159;DHT22;31888;44.512;26.104;2022-09-14T05:33:02;27.30;61.00
46159;DHT22;31888;44.512;26.104;2022-09-14T05:35:07;27.30;61.30
46159;DHT22;31888;44.512;26.104;2022-09-14T05:37:11;27.40;61.10
46159;DHT22;31888;44.512;26.104;2022-09-14T05:39:15;27.50;60.60
46159;DHT22;31888;44.512;26.104;2022-09-14T05:41:25;27.40;60.60
46159;DHT22;31888;44.512;26.104;2022-09-14T05:43:30;27.50;60.60
46159;DHT22;31888;44.512;26.104;2022-09-14T05:45:36;27.50;60.60
46159;DHT22;31888;44.512;26.104;2022-09-14T05:47:40;27.40;60.70
46159;DHT22;31888;44.512;26.104;2022-09-14T05:49:45;27.20;61.20
46159;DHT22;31888;44.512;26.104;2022-09-14T05:51:49;26.90;61.60
46159;DHT22;31888;44.512;26.104;2022-09-14T05:53:55;26.50;62.50
46159;DHT22;31888;44.512;26.104;2022-09-14T05:56:00;26.20;63.00
46159;DHT22;31888;44.512;26.104;2022-09-14T05:58:05;26.00;63.70
46159;DHT22;31888;44.512;26.104;2022-09-14T06:00:10;25.90;63.00
46159;DHT22;31888;44.512;26.104;2022-09-14T06:02:18;25.90;63.70
46159;DHT22;31888;44.512;26.104;2022-09-14T06:04:30;25.90;63.80
46159;DHT22;31888;44.512;26.104;2022-09-14T06:06:46;26.10;63.80
46159;DHT22;31888;44.512;26.104;2022-09-14T06:09:12;26.10;63.30
46159;DHT22;31888;44.512;26.104;2022-09-14T06:11:18;25.40;63.70
46159;DHT22;31888;44.512;26.104;2022-09-14T06:13:23;25.40;63.60
46159;DHT22;31888;44.512;26.104;2022-09-14T06:15:28;25.20;63.20
46159;DHT22;31888;44.512;26.104;2022-09-14T06:17:34;24.30;64.90
46159;DHT22;31888;44.512;26.104;2022-09-14T06:19:38;24.10;67.10
46159;DHT22;31888;44.512;26.104;2022-09-14T06:21:43;24.60;66.20
46159;DHT22;31888;44.512;26.104;2022-09-14T06:23:49;24.90;65.10
46159;DHT22;31888;44.512;26.104;2022-09-14T06:25:54;25.00;65.00
46159;DHT22;31888;44.512;26.104;2022-09-14T06:27:59;25.40;64.40
46159;DHT22;31888;44.512;26.104;2022-09-14T06:30:04;25.60;64.00
46159;DHT22;31888;44.512;26.104;2022-09-14T06:32:09;26.00;63.30
46159;DHT22;31888;44.512;26.104;2022-09-14T06:34:16;26.10;62.80
46159;DHT22;31888;44.512;26.104;2022-09-14T06:36:22;25.90;63.30
46159;DHT22;31888;44.512;26.104;2022-09-14T06:38:28;26.20;62.30
46159;DHT22;31888;44.512;26.104;2022-09-14T06:40:32;26.20;62.50
46159;DHT22;31888;44.512;26.104;2022-09-14T06:42:37;26.10;62.30
46159;DHT22;31888;44.512;26.104;2022-09-14T06:44:41;25.90;63.30
46159;DHT22;31888;44.512;26.104;2022-09-14T06:46:46;26.20;62.80
46159;DHT22;31888;44.512;26.104;2022-09-14T06:48:53;26.40;62.60
46159;DHT22;31888;44.512;26.104;2022-09-14T06:51:00;26.60;62.30
46159;DHT22;31888;44.512;26.104;2022-09-14T06:53:13;26.50;62.00
46159;DHT22;31888;44.512;26.104;2022-09-14T06:55:17;25.90;62.80
46159;DHT22;31888;44.512;26.104;2022-09-14T06:57:25;25.70;63.90
46159;DHT22;31888;44.512;26.104;2022-09-14T06:59:29;25.50;64.00
46159;DHT22;31888;44.512;26.104;2022-09-14T07:01:34;25.70;63.10
46159;DHT22;31888;44.512;26.104;2022-09-14T07:03:39;26.00;63.20
46159;DHT22;31888;44.512;26.104;2022-09-14T07:05:45;25.90;63.10
46159;DHT22;31888;44.512;26.104;2022-09-14T07:07:51;25.90;62.90
46159;DHT22;31888;44.512;26.104;2022-09-14T07:09:56;25.40;63.90
46159;DHT22;31888;44.512;26.104;2022-09-14T07:12:00;25.70;62.90
46159;DHT22;31888;44.512;26.104;2022-09-14T07:14:06;25.50;62.80
46159;DHT22;31888;44.512;26.104;2022-09-14T07:16:12;25.20;63.50
46159;DHT22;31888;44.512;26.104;2022-09-14T07:18:16;25.00;63.90
46159;DHT22;31888;44.512;26.104;2022-09-14T07:20:21;24.90;64.00
46159;DHT22;31888;44.512;26.104;2022-09-14T07:22:26;24.60;64.40
46159;DHT22;31888;44.512;26.104;2022-09-14T07:24:32;25.00;64.90
46159;DHT22;31888;44.512;26.104;2022-09-14T07:26:38;25.40;63.60
46159;DHT22;31888;44.512;26.104;2022-09-14T07:28:45;25.90;62.80
46159;DHT22;31888;44.512;26.104;2022-09-14T07:30:49;26.10;62.60
46159;DHT22;31888;44.512;26.104;2022-09-14T07:33:00;26.60;61.40
46159;DHT22;31888;44.512;26.104;2022-09-14T07:35:05;26.20;62.30
46159;DHT22;31888;44.512;26.104;2022-09-14T07:37:10;26.10;62.20
46159;DHT22;31888;44.512;26.104;2022-09-14T07:39:15;26.10;61.50
46159;DHT22;31888;44.512;26.104;2022-09-14T07:41:23;26.00;61.40
46159;DHT22;31888;44.512;26.104;2022-09-14T07:43:28;25.70;62.10
46159;DHT22;31888;44.512;26.104;2022-09-14T07:45:34;25.60;61.80
46159;DHT22;31888;44.512;26.104;2022-09-14T07:47:38;26.10;62.40
46159;DHT22;31888;44.512;26.104;2022-09-14T07:49:43;25.70;62.70
46159;DHT22;31888;44.512;26.104;2022-09-14T07:51:47;25.70;62.20
46159;DHT22;31888;44.512;26.104;2022-09-14T07:53:52;25.40;63.70
46159;DHT22;31888;44.512;26.104;2022-09-14T07:55:58;25.30;63.00
46159;DHT22;31888;44.512;26.104;2022-09-14T07:58:04;25.20;63.30
46159;DHT22;31888;44.512;26.104;2022-09-14T08:00:10;24.60;63.60
46159;DHT22;31888;44.512;26.104;2022-09-14T08:02:14;24.70;64.50
46159;DHT22;31888;44.512;26.104;2022-09-14T08:04:22;25.10;64.70
46159;DHT22;31888;44.512;26.104;2022-09-14T08:06:27;25.70;62.70
46159;DHT22;31888;44.512;26.104;2022-09-14T08:08:34;26.20;62.10
46159;DHT22;31888;44.512;26.104;2022-09-14T08:10:38;26.40;61.60
46159;DHT22;31888;44.512;26.104;2022-09-14T08:12:42;26.10;60.70
46159;DHT22;31888;44.512;26.104;2022-09-14T08:14:48;26.10;60.70
46159;DHT22;31888;44.512;26.104;2022-09-14T08:16:53;26.20;61.20
46159;DHT22;31888;44.512;26.104;2022-09-14T08:18:59;26.00;61.20
46159;DHT22;31888;44.512;26.104;2022-09-14T08:21:05;26.30;61.00
46159;DHT22;31888;44.512;26.104;2022-09-14T08:23:09;26.30;61.20
46159;DHT22;31888;44.512;26.104;2022-09-14T08:25:14;26.30;61.00
46159;DHT22;31888;44.512;26.104;2022-09-14T08:27:18;26.60;59.90
46159;DHT22;31888;44.512;26.104;2022-09-14T08:29:24;26.90;60.30
46159;DHT22;31888;44.512;26.104;2022-09-14T08:31:30;27.00;60.20
46159;DHT22;31888;44.512;26.104;2022-09-14T08:33:40;27.10;60.00
46159;DHT22;31888;44.512;26.104;2022-09-14T08:35:45;26.80;60.40
46159;DHT22;31888;44.512;26.104;2022-09-14T08:37:59;26.80;60.50
46159;DHT22;31888;44.512;26.104;2022-09-14T08:40:04;26.40;60.50
46159;DHT22;31888;44.512;26.104;2022-09-14T08:42:13;26.50;61.30
46159;DHT22;31888;44.512;26.104;2022-09-14T08:44:23;26.70;61.10
46159;DHT22;31888;44.512;26.104;2022-09-14T08:46:32;26.50;61.40
46159;DHT22;31888;44.512;26.104;2022-09-14T08:48:40;26.70;61.80
46159;DHT22;31888;44.512;26.104;2022-09-14T08:50:47;27.00;61.30
46159;DHT22;31888;44.512;26.104;2022-09-14T08:52:55;27.20;60.10
46159;DHT22;31888;44.512;26.104;2022-09-14T08:55:22;27.40;60.30
46159;DHT22;31888;44.512;26.104;2022-09-14T08:57:41;27.50;59.90
46159;DHT22;31888;44.512;26.104;2022-09-14T08:59:52;27.40;60.20
46159;DHT22;31888;44.512;26.104;2022-09-14T09:02:14;27.70;59.20
46159;DHT22;31888;44.512;26.104;2022-09-14T09:04:32;27.60;59.80
46159;DHT22;31888;44.512;26.104;2022-09-14T09:06:43;27.80;59.70
46159;DHT22;31888;44.512;26.104;2022-09-14T09:08:56;27.90;59.10
46159;DHT22;31888;44.512;26.104;2022-09-14T09:11:07;27.60;59.20
46159;DHT22;31888;44.512;26.104;2022-09-14T09:13:20;27.60;59.10
46159;DHT22;31888;44.512;26.104;2022-09-14T09:15:25;27.70;59.30
46159;DHT22;31888;44.512;26.104;2022-09-14T09:17:35;27.80;59.40
46159;DHT22;31888;44.512;26.104;2022-09-14T09:19:50;28.10;59.30
46159;DHT22;31888;44.512;26.104;2022-09-14T09:21:58;27.60;60.10
46159;DHT22;31888;44.512;26.104;2022-09-14T09:24:24;27.70;59.40
46159;DHT22;31888;44.512;26.104;2022-09-14T09:26:31;27.80;59.10
46159;DHT22;31888;44.512;26.104;2022-09-14T09:28:40;28.00;59.40
46159;DHT22;31888;44.512;26.104;2022-09-14T09:31:02;27.70;59.10
46159;DHT22;31888;44.512;26.104;2022-09-14T09:33:48;27.80;58.80
46159;DHT22;31888;44.512;26.104;2022-09-14T09:35:57;27.40;59.20
46159;DHT22;31888;44.512;26.104;2022-09-14T09:38:12;27.30;59.30
46159;DHT22;31888;44.512;26.104;2022-09-14T09:40:22;27.10;60.20
46159;DHT22;31888;44.512;26.104;2022-09-14T09:42:29;27.30;60.40
46159;DHT22;31888;44.512;26.104;2022-09-14T09:44:53;27.60;59.80
46159;DHT22;31888;44.512;26.104;2022-09-14T09:47:07;27.60;59.90
46159;DHT22;31888;44.512;26.104;2022-09-14T09:49:20;27.80;59.10
46159;DHT22;31888;44.512;26.104;2022-09-14T09:51:27;27.80;59.90
46159;DHT22;31888;44.512;26.104;2022-09-14T09:53:36;27.90;59.10
46159;DHT22;31888;44.512;26.104;2022-09-14T09:55:40;28.00;59.60
46159;DHT22;31888;44.512;26.104;2022-09-14T09:57:49;27.80;59.20
46159;DHT22;31888;44.512;26.104;2022-09-14T10:00:10;27.70;59.60
46159;DHT22;31888;44.512;26.104;2022-09-14T10:02:21;27.50;59.70
46159;DHT22;31888;44.512;26.104;2022-09-14T10:04:28;27.70;59.50
46159;DHT22;31888;44.512;26.104;2022-09-14T10:06:40;27.90;59.70
46159;DHT22;31888;44.512;26.104;2022-09-14T10:08:46;27.80;59.90
46159;DHT22;31888;44.512;26.104;2022-09-14T10:10:52;28.00;59.60
46159;DHT22;31888;44.512;26.104;2022-09-14T10:12:56;28.10;60.00
46159;DHT22;31888;44.512;26.104;2022-09-14T10:15:17;28.00;59.30
46159;DHT22;31888;44.512;26.104;2022-09-14T10:17:24;27.90;58.80
46159;DHT22;31888;44.512;26.104;2022-09-14T10:19:30;28.00;58.30
46159;DHT22;31888;44.512;26.104;2022-09-14T10:21:35;28.10;58.80
46159;DHT22;31888;44.512;26.104;2022-09-14T10:23:39;28.00;59.60
46159;DHT22;31888;44.512;26.104;2022-09-14T10:25:44;28.00;60.10
46159;DHT22;31888;44.512;26.104;2022-09-14T10:27:57;27.70;60.50
46159;DHT22;31888;44.512;26.104;2022-09-14T10:30:03;27.90;58.70
46159;DHT22;31888;44.512;26.104;2022-09-14T10:32:22;28.00;57.90
46159;DHT22;31888;44.512;26.104;2022-09-14T10:34:29;28.10;57.60
46159;DHT22;31888;44.512;26.104;2022-09-14T10:36:39;28.20;57.70
46159;DHT22;31888;44.512;26.104;2022-09-14T10:38:50;28.30;57.70
46159;DHT22;31888;44.512;26.104;2022-09-14T10:41:06;28.40;58.70
46159;DHT22;31888;44.512;26.104;2022-09-14T10:43:15;28.50;58.20
46159;DHT22;31888;44.512;26.104;2022-09-14T10:45:23;28.60;57.90
46159;DHT22;31888;44.512;26.104;2022-09-14T10:47:51;28.60;56.80
46159;DHT22;31888;44.512;26.104;2022-09-14T10:50:14;28.50;57.50
46159;DHT22;31888;44.512;26.104;2022-09-14T10:52:41;28.50;57.70
46159;DHT22;31888;44.512;26.104;2022-09-14T10:55:06;28.30;57.30
46159;DHT22;31888;44.512;26.104;2022-09-14T10:57:26;28.10;57.80
46159;DHT22;31888;44.512;26.104;2022-09-14T10:59:42;28.30;57.80
46159;DHT22;31888;44.512;26.104;2022-09-14T11:02:00;28.40;57.00
46159;DHT22;31888;44.512;26.104;2022-09-14T11:04:21;28.40;56.90
46159;DHT22;31888;44.512;26.104;2022-09-14T11:06:38;28.30;57.20
46159;DHT22;31888;44.512;26.104;2022-09-14T11:08:51;28.20;57.80
46159;DHT22;31888;44.512;26.104;2022-09-14T11:11:15;28.10;57.00
46159;DHT22;31888;44.512;26.104;2022-09-14T11:13:50;27.90;57.80
46159;DHT22;31888;44.512;26.104;2022-09-14T11:16:02;28.10;56.40
46159;DHT22;31888;44.512;26.104;2022-09-14T11:18:24;28.10;55.70
46159;DHT22;31888;44.512;26.104;2022-09-14T11:20:37;27.90;56.40
46159;DHT22;31888;44.512;26.104;2022-09-14T11:22:49;27.70;56.70
46159;DHT22;31888;44.512;26.104;2022-09-14T11:25:00;27.70;56.90
46159;DHT22;31888;44.512;26.104;2022-09-14T11:27:12;27.90;57.30
46159;DHT22;31888;44.512;26.104;2022-09-14T11:29:23;28.10;57.40
46159;DHT22;31888;44.512;26.104;2022-09-14T11:34:21;28.10;56.10
46159;DHT22;31888;44.512;26.104;2022-09-14T11:36:31;28.20;55.90
46159;DHT22;31888;44.512;26.104;2022-09-14T11:38:43;28.30;56.10
46159;DHT22;31888;44.512;26.104;2022-09-14T11:40:52;28.40;55.80
46159;DHT22;31888;44.512;26.104;2022-09-14T11:43:03;28.30;56.70
46159;DHT22;31888;44.512;26.104;2022-09-14T11:45:16;28.50;56.30
46159;DHT22;31888;44.512;26.104;2022-09-14T11:47:21;28.60;55.80
46159;DHT22;31888;44.512;26.104;2022-09-14T11:49:29;28.50;55.50
46159;DHT22;31888;44.512;26.104;2022-09-14T11:51:37;28.50;54.80
46159;DHT22;31888;44.512;26.104;2022-09-14T11:53:45;28.50;54.60
46159;DHT22;31888;44.512;26.104;2022-09-14T11:55:53;28.50;55.70
46159;DHT22;31888;44.512;26.104;2022-09-14T11:57:58;28.40;55.40
46159;DHT22;31888;44.512;26.104;2022-09-14T12:00:07;28.40;56.90
46159;DHT22;31888;44.512;26.104;2022-09-14T12:05:24;28.80;56.10
46159;DHT22;31888;44.512;26.104;2022-09-14T12:11:04;29.10;54.10
46159;DHT22;31888;44.512;26.104;2022-09-14T12:13:30;28.80;54.20
46159;DHT22;31888;44.512;26.104;2022-09-14T12:15:37;28.70;54.50
46159;DHT22;31888;44.512;26.104;2022-09-14T12:17:43;28.70;54.90
46159;DHT22;31888;44.512;26.104;2022-09-14T12:19:49;28.80;55.40
46159;DHT22;31888;44.512;26.104;2022-09-14T12:21:54;28.90;54.40
46159;DHT22;31888;44.512;26.104;2022-09-14T12:24:12;28.90;53.90
46159;DHT22;31888;44.512;26.104;2022-09-14T12:26:36;28.70;53.60
46159;DHT22;31888;44.512;26.104;2022-09-14T12:28:44;28.60;53.90
46159;DHT22;31888;44.512;26.104;2022-09-14T12:31:12;28.60;53.70
46159;DHT22;31888;44.512;26.104;2022-09-14T12:33:41;28.50;54.60
46159;DHT22;31888;44.512;26.104;2022-09-14T12:35:46;28.50;54.20
46159;DHT22;31888;44.512;26.104;2022-09-14T12:37:50;28.80;54.00
46159;DHT22;31888;44.512;26.104;2022-09-14T12:42:38;29.00;53.90
46159;DHT22;31888;44.512;26.104;2022-09-14T12:44:43;29.00;53.80
46159;DHT22;31888;44.512;26.104;2022-09-14T12:46:47;29.00;54.10
46159;DHT22;31888;44.512;26.104;2022-09-14T12:48:59;28.90;54.20
46159;DHT22;31888;44.512;26.104;2022-09-14T12:51:05;28.80;54.60
46159;DHT22;31888;44.512;26.104;2022-09-14T12:53:28;28.90;54.20
46159;DHT22;31888;44.512;26.104;2022-09-14T12:55:43;29.00;53.80
46159;DHT22;31888;44.512;26.104;2022-09-14T12:57:59;29.00;53.70
46159;DHT22;31888;44.512;26.104;2022-09-14T13:00:11;29.10;53.60
46159;DHT22;31888;44.512;26.104;2022-09-14T13:02:38;29.10;53.30
46159;DHT22;31888;44.512;26.104;2022-09-14T13:04:45;28.90;53.10
46159;DHT22;31888;44.512;26.104;2022-09-14T13:06:50;28.70;53.30
46159;DHT22;31888;44.512;26.104;2022-09-14T13:08:57;28.70;53.40
46159;DHT22;31888;44.512;26.104;2022-09-14T13:11:02;28.70;53.30
46159;DHT22;31888;44.512;26.104;2022-09-14T13:13:14;28.80;53.40
46159;DHT22;31888;44.512;26.104;2022-09-14T13:15:25;28.80;54.00
46159;DHT22;31888;44.512;26.104;2022-09-14T13:17:33;28.60;53.60
46159;DHT22;31888;44.512;26.104;2022-09-14T13:19:40;28.70;53.40
46159;DHT22;31888;44.512;26.104;2022-09-14T13:21:46;28.60;53.40
46159;DHT22;31888;44.512;26.104;2022-09-14T13:23:51;28.70;53.30
46159;DHT22;31888;44.512;26.104;2022-09-14T13:25:56;28.80;52.90
46159;DHT22;31888;44.512;26.104;2022-09-14T13:28:03;28.90;52.50
46159;DHT22;31888;44.512;26.104;2022-09-14T13:30:19;28.80;52.90
46159;DHT22;31888;44.512;26.104;2022-09-14T13:32:25;28.60;52.20